Ana Sayfa
METAR-TAF:

METAR-TAF

Havaalanları :

Samaná, Dominik Cumhuriyeti

Enlem: 19-11-55N, Boylam: 69-25-47W, yükseklik: 18 m

Güncel hava durumu gözlemi

Rapor saat 21:00 UTC de 8 saat ve 51 dakika önce yapıldı.
Rüzgar kuzeydoğudan 6 kt
Sıcaklık 29°C
Nem 74%
Basınç 1014 hPa
Görüş mesafesi 10 km veya daha fazla
2000 ft yükseklikte az bulutlu
7000 ft yükseklikte parçalı çok bulutlu

METAR: MDAB 152100Z 04006KT 9999 FEW020 BKN070 29/24 Q1014

Saat: 01:51 (05:51 UTC)


TAF: eksik

4.000'den fazla havaalanı için hava durumu gözlemleri ve tahminleri (METAR ve TAF raporları).

Kullanılabilir istasyonlar harita üzerinde sarı ve kırmızı noktalarla gösterilir.

İstasyonun adını görmek için fareyi noktanın üzerinde gezdirin.

Sonrasında hava gözlem ve tahminlerini görmek için tıklayın.

Haritayı değiştirmek için: yaklaştırmak için siyah artı işaretli yeşil düğmeye ve uzaklaştırmak için de eksi işaretli düğmeye hızla tıklayın; bitişik haritalar için yeşil okları kullanın.


METAR-TAF: